createdAt,value
2019-01-31T00:02:47.139Z,4.23
2019-01-31T00:05:38.010Z,4.60
2019-01-31T00:08:45.223Z,4.37
2019-01-31T00:11:08.363Z,3.97
2019-01-31T00:13:59.139Z,3.93
2019-01-31T00:16:46.146Z,3.67
2019-01-31T00:19:20.547Z,4.30
2019-01-31T00:22:10.679Z,3.80
2019-01-31T00:24:42.323Z,4.20
2019-01-31T00:27:28.328Z,3.70
2019-01-31T00:30:15.439Z,4.10
2019-01-31T00:33:08.416Z,4.50
2019-01-31T00:35:58.806Z,4.20
2019-01-31T00:39:01.163Z,3.77
2019-01-31T00:41:45.336Z,3.47
2019-01-31T00:44:44.826Z,3.77
2019-01-31T00:47:36.359Z,3.57
2019-01-31T00:50:23.384Z,4.40
2019-01-31T00:53:11.800Z,4.30
2019-01-31T00:55:58.865Z,4.03
2019-01-31T00:58:49.087Z,4.33
2019-01-31T01:01:21.804Z,3.87
2019-01-31T01:04:12.022Z,4.10
2019-01-31T01:07:01.865Z,3.90
2019-01-31T01:09:49.770Z,4.03
2019-01-31T01:12:36.788Z,4.30
2019-01-31T01:15:25.731Z,3.83
2019-01-31T01:18:00.284Z,4.10
2019-01-31T01:20:37.412Z,4.07
2019-01-31T01:23:30.677Z,3.70
2019-01-31T01:26:11.746Z,4.37
2019-01-31T01:28:48.639Z,4.17
2019-01-31T01:31:23.212Z,4.33
2019-01-31T01:34:00.723Z,4.00
2019-01-31T01:36:56.819Z,4.10
2019-01-31T01:39:37.360Z,4.03
2019-01-31T01:42:22.402Z,3.70
2019-01-31T01:45:09.503Z,4.13
2019-01-31T01:47:43.472Z,3.97
2019-01-31T01:50:18.208Z,4.07
2019-01-31T01:53:05.344Z,4.00
2019-01-31T01:55:36.433Z,4.07
2019-01-31T01:58:23.332Z,4.47
2019-01-31T02:01:05.579Z,4.20
2019-01-31T02:03:55.213Z,4.13
2019-01-31T02:06:29.682Z,4.60
2019-01-31T02:09:29.744Z,4.17
2019-01-31T02:12:02.556Z,4.60
2019-01-31T02:15:01.921Z,4.10
2019-01-31T02:18:07.408Z,4.37
2019-01-31T02:20:53.069Z,4.63
2019-01-31T02:23:38.775Z,4.70
2019-01-31T02:26:31.800Z,4.23
2019-01-31T02:29:08.555Z,4.30
2019-01-31T02:32:01.148Z,4.47
2019-01-31T02:34:39.994Z,4.47
2019-01-31T02:37:17.584Z,4.50
2019-01-31T02:40:04.684Z,4.47
2019-01-31T02:42:34.986Z,3.90
2019-01-31T02:45:06.748Z,4.17
2019-01-31T02:47:45.481Z,4.50
2019-01-31T02:50:41.589Z,3.97
2019-01-31T02:53:19.795Z,4.00
2019-01-31T02:56:15.820Z,4.83
2019-01-31T02:58:55.683Z,3.87
2019-01-31T03:01:39.472Z,4.70
2019-01-31T03:04:35.961Z,4.23
2019-01-31T03:07:32.225Z,4.33
2019-01-31T03:10:19.318Z,4.53
2019-01-31T03:13:21.687Z,4.40
2019-01-31T03:16:08.795Z,4.30
2019-01-31T03:19:01.948Z,4.33
2019-01-31T03:21:45.349Z,4.40
2019-01-31T03:24:36.942Z,4.70
2019-01-31T03:27:33.320Z,4.20
2019-01-31T03:30:38.613Z,4.80
2019-01-31T03:33:10.265Z,4.50
2019-01-31T03:35:57.343Z,4.63
2019-01-31T03:38:47.386Z,4.40
2019-01-31T03:41:37.456Z,4.23
2019-01-31T03:44:30.627Z,4.40
2019-01-31T03:47:16.567Z,4.87
2019-01-31T03:49:58.047Z,4.97
2019-01-31T03:53:03.488Z,4.73
2019-01-31T03:55:44.353Z,5.20
2019-01-31T03:58:16.782Z,4.60
2019-01-31T04:01:03.801Z,4.70
2019-01-31T04:03:37.659Z,4.90
2019-01-31T04:06:30.961Z,4.83
2019-01-31T04:09:02.182Z,5.87
2019-01-31T04:11:30.281Z,5.20
2019-01-31T04:13:59.624Z,4.80
2019-01-31T04:16:27.661Z,5.43
2019-01-31T04:18:55.709Z,5.40
2019-01-31T04:21:24.752Z,5.20
2019-01-31T04:23:55.265Z,5.50
2019-01-31T04:26:23.293Z,5.63
2019-01-31T04:28:51.453Z,5.63
2019-01-31T04:31:21.934Z,5.67
2019-01-31T04:33:49.881Z,5.77
2019-01-31T04:36:17.829Z,5.70
2019-01-31T04:38:45.845Z,5.23
2019-01-31T04:41:13.872Z,5.63
2019-01-31T04:43:41.913Z,5.67
2019-01-31T04:46:10.015Z,5.50
2019-01-31T04:48:38.040Z,5.80
2019-01-31T04:51:06.484Z,6.07
2019-01-31T04:53:34.496Z,5.53
2019-01-31T04:56:02.576Z,6.33
2019-01-31T04:58:30.530Z,5.87
2019-01-31T05:00:58.541Z,5.97
2019-01-31T05:03:26.760Z,5.97
2019-01-31T05:05:58.297Z,6.17
2019-01-31T05:08:26.271Z,6.63
2019-01-31T05:10:57.323Z,5.87
2019-01-31T05:13:25.380Z,6.37
2019-01-31T05:15:53.364Z,6.17
2019-01-31T05:18:21.293Z,6.17
2019-01-31T05:20:49.316Z,6.30
2019-01-31T05:23:17.344Z,6.40
2019-01-31T05:25:45.353Z,6.20
2019-01-31T05:28:14.576Z,6.27
2019-01-31T05:30:42.632Z,6.40
2019-01-31T05:33:10.627Z,6.40
2019-01-31T05:35:38.635Z,5.80
2019-01-31T05:38:06.689Z,6.27
2019-01-31T05:40:36.032Z,5.97
2019-01-31T05:43:07.138Z,5.70
2019-01-31T05:45:35.149Z,5.93
2019-01-31T05:48:03.580Z,5.50
2019-01-31T05:50:31.604Z,6.57
2019-01-31T05:52:59.749Z,6.40
2019-01-31T05:55:27.772Z,5.93
2019-01-31T05:58:01.427Z,5.67
2019-01-31T06:00:32.964Z,5.70
2019-01-31T06:03:01.195Z,5.60
2019-01-31T06:05:29.342Z,6.10
2019-01-31T06:07:57.259Z,6.20
2019-01-31T06:10:25.188Z,6.17
2019-01-31T06:12:55.272Z,6.77
2019-01-31T06:15:23.426Z,7.00
2019-01-31T06:17:51.841Z,7.00
2019-01-31T06:20:21.209Z,6.53
2019-01-31T06:22:49.217Z,7.27
2019-01-31T06:25:18.495Z,6.67
2019-01-31T06:27:46.826Z,7.33
2019-01-31T06:30:15.515Z,6.40
2019-01-31T06:32:43.766Z,6.60
2019-01-31T06:35:11.990Z,6.20
2019-01-31T06:37:39.948Z,6.13
2019-01-31T06:40:08.860Z,6.17
2019-01-31T06:42:36.878Z,7.10
2019-01-31T06:45:05.821Z,6.37
2019-01-31T06:47:35.218Z,6.40
2019-01-31T06:50:05.019Z,5.67
2019-01-31T06:52:33.060Z,6.60
2019-01-31T06:55:04.089Z,6.23
2019-01-31T06:57:32.121Z,6.77
2019-01-31T07:00:00.193Z,6.73
2019-01-31T07:02:40.043Z,7.13
2019-01-31T07:05:08.300Z,6.93
2019-01-31T07:07:36.520Z,6.27
2019-01-31T07:10:06.097Z,6.33
2019-01-31T07:12:34.245Z,6.70
2019-01-31T07:15:02.362Z,6.40
2019-01-31T07:17:30.314Z,6.80
2019-01-31T07:19:59.894Z,6.30
2019-01-31T07:22:27.939Z,6.50
2019-01-31T07:24:56.089Z,6.63
2019-01-31T07:27:24.194Z,6.57
2019-01-31T07:29:52.271Z,6.87
2019-01-31T07:32:23.238Z,6.60
2019-01-31T07:34:52.549Z,6.20
2019-01-31T07:37:20.565Z,6.00
2019-01-31T07:39:48.648Z,5.70
2019-01-31T07:42:17.608Z,5.77
2019-01-31T07:44:47.394Z,5.60
2019-01-31T07:47:15.376Z,6.60
2019-01-31T07:49:45.478Z,6.13
2019-01-31T07:52:13.477Z,6.60
2019-01-31T07:54:41.496Z,6.37
2019-01-31T07:57:09.587Z,6.70
2019-01-31T07:59:37.649Z,6.27
2019-01-31T08:02:05.691Z,6.30
2019-01-31T08:04:33.722Z,6.60
2019-01-31T08:07:01.744Z,6.20
2019-01-31T08:09:29.876Z,6.50
2019-01-31T08:11:57.983Z,6.53
2019-01-31T08:14:28.792Z,6.40
2019-01-31T08:16:56.829Z,6.63
2019-01-31T08:19:24.933Z,6.50
2019-01-31T08:21:53.020Z,6.60
2019-01-31T08:24:21.193Z,7.20
2019-01-31T08:26:49.112Z,8.00
2019-01-31T08:29:17.067Z,6.57
2019-01-31T08:31:45.132Z,6.20
2019-01-31T08:34:13.244Z,6.10
2019-01-31T08:36:41.203Z,6.83
2019-01-31T08:39:09.924Z,6.70
2019-01-31T08:41:38.203Z,6.23
2019-01-31T08:44:06.349Z,6.20
2019-01-31T08:46:34.405Z,6.37
2019-01-31T08:49:02.446Z,6.30
2019-01-31T08:51:30.497Z,5.70
2019-01-31T08:53:58.468Z,6.57
2019-01-31T08:56:26.542Z,6.40
2019-01-31T08:58:54.553Z,6.30
2019-01-31T09:01:22.509Z,6.43
2019-01-31T09:03:50.576Z,6.97
2019-01-31T09:06:18.821Z,13.13
2019-01-31T09:08:46.860Z,9.00
2019-01-31T09:11:14.924Z,6.30
2019-01-31T09:13:42.904Z,7.20
2019-01-31T09:16:10.929Z,6.37
2019-01-31T09:18:38.956Z,8.47
2019-01-31T09:21:15.660Z,7.70
2019-01-31T09:23:50.898Z,6.70
2019-01-31T09:26:26.080Z,5.90
2019-01-31T09:29:16.124Z,5.87
2019-01-31T09:32:12.346Z,6.80
2019-01-31T09:34:58.306Z,7.03
2019-01-31T09:37:45.977Z,8.50
2019-01-31T09:40:31.878Z,5.93
2019-01-31T09:43:06.357Z,6.33
2019-01-31T09:45:37.676Z,5.50
2019-01-31T09:48:27.064Z,5.90
2019-01-31T09:51:08.205Z,6.13
2019-01-31T09:53:55.220Z,7.37
2019-01-31T09:56:38.000Z,6.17
2019-01-31T09:59:16.653Z,8.10
2019-01-31T10:01:52.594Z,6.27
2019-01-31T10:04:30.052Z,6.47
2019-01-31T10:07:16.023Z,7.33
2019-01-31T10:10:03.027Z,6.67
2019-01-31T10:12:56.617Z,7.00
2019-01-31T10:15:45.694Z,6.90
2019-01-31T10:18:41.398Z,6.60
2019-01-31T10:21:22.097Z,7.90
2019-01-31T10:24:21.457Z,7.97
2019-01-31T10:27:14.936Z,7.20
2019-01-31T10:29:53.826Z,6.97
2019-01-31T10:32:40.865Z,7.03
2019-01-31T10:35:25.721Z,7.63
2019-01-31T10:38:18.821Z,12.67
2019-01-31T10:41:02.569Z,7.97
2019-01-31T10:43:58.423Z,8.17
2019-01-31T10:46:38.311Z,9.30
2019-01-31T10:49:37.763Z,8.47
2019-01-31T10:52:18.816Z,7.20
2019-01-31T10:55:05.844Z,6.77
2019-01-31T10:58:04.979Z,6.80
2019-01-31T11:00:51.388Z,6.87
2019-01-31T11:03:37.548Z,6.60
2019-01-31T11:06:33.766Z,6.53
2019-01-31T11:09:27.204Z,6.93
2019-01-31T11:12:14.721Z,7.50
2019-01-31T11:15:04.735Z,7.07
2019-01-31T11:17:57.795Z,7.73
2019-01-31T11:20:43.545Z,7.23
2019-01-31T11:23:39.853Z,7.03
2019-01-31T11:26:29.886Z,7.20
2019-01-31T11:29:22.895Z,6.90
2019-01-31T11:32:15.961Z,6.93
2019-01-31T11:35:09.003Z,7.27
2019-01-31T11:37:50.904Z,7.17
2019-01-31T11:40:36.261Z,5.60
2019-01-31T11:43:12.076Z,5.10
2019-01-31T11:45:59.187Z,5.57
2019-01-31T11:48:49.292Z,5.73
2019-01-31T11:51:42.342Z,5.63
2019-01-31T11:54:13.572Z,3.90
2019-01-31T11:57:05.546Z,3.50
2019-01-31T11:59:30.332Z,3.10
2019-01-31T12:01:58.379Z,3.47
2019-01-31T12:04:26.546Z,3.00
2019-01-31T12:06:54.643Z,3.27
2019-01-31T12:09:22.691Z,3.13
2019-01-31T12:11:50.882Z,3.10
2019-01-31T12:14:18.926Z,3.00
2019-01-31T12:16:46.887Z,3.00
2019-01-31T12:19:14.799Z,3.13
2019-01-31T12:21:42.922Z,3.17
2019-01-31T12:24:16.494Z,3.03
2019-01-31T12:26:40.771Z,3.33
2019-01-31T12:29:08.697Z,2.93
2019-01-31T12:31:36.843Z,3.00
2019-01-31T12:34:05.116Z,3.00
2019-01-31T12:36:33.101Z,3.40
2019-01-31T12:39:01.023Z,2.83
2019-01-31T12:41:29.075Z,3.20
2019-01-31T12:43:57.028Z,3.23
2019-01-31T12:46:24.956Z,2.90
2019-01-31T12:48:52.880Z,3.03
2019-01-31T12:51:20.867Z,3.10
2019-01-31T12:53:48.795Z,3.00
2019-01-31T12:56:16.736Z,2.80
2019-01-31T12:58:44.702Z,2.80
2019-01-31T13:01:12.607Z,3.20
2019-01-31T13:03:40.792Z,3.10
2019-01-31T13:06:08.747Z,2.90
2019-01-31T13:08:36.796Z,3.30
2019-01-31T13:11:04.933Z,3.10
2019-01-31T13:13:32.860Z,2.97
2019-01-31T13:16:00.956Z,3.10
2019-01-31T13:18:29.227Z,3.17
2019-01-31T13:20:57.266Z,3.23
2019-01-31T13:23:25.284Z,2.93
2019-01-31T13:25:53.235Z,3.10
2019-01-31T13:28:21.254Z,2.73
2019-01-31T13:30:49.277Z,2.70
2019-01-31T13:33:17.296Z,2.73
2019-01-31T13:35:45.275Z,2.80
2019-01-31T13:38:13.218Z,2.97
2019-01-31T13:40:41.330Z,2.80
2019-01-31T13:43:09.320Z,3.13
2019-01-31T13:45:37.696Z,3.17
2019-01-31T13:48:10.379Z,3.07
2019-01-31T13:50:38.403Z,3.00
2019-01-31T13:53:07.335Z,2.80
2019-01-31T13:55:35.548Z,3.10
2019-01-31T13:58:03.476Z,3.07
2019-01-31T14:00:31.559Z,3.30
2019-01-31T14:02:59.853Z,3.10
2019-01-31T14:05:29.951Z,3.20
2019-01-31T14:07:57.652Z,2.50
2019-01-31T14:10:25.693Z,3.10
2019-01-31T14:12:53.706Z,3.40
2019-01-31T14:15:33.094Z,3.97
2019-01-31T14:17:53.148Z,3.67
2019-01-31T14:20:22.363Z,3.30
2019-01-31T14:22:50.329Z,3.27
2019-01-31T14:25:18.331Z,2.83
2019-01-31T14:27:46.303Z,2.73
2019-01-31T14:30:16.495Z,2.87
2019-01-31T14:32:45.010Z,2.40
2019-01-31T14:35:15.452Z,2.40
2019-01-31T14:43:11.679Z,2.83
2019-01-31T14:45:39.587Z,2.30
2019-01-31T14:48:07.592Z,2.40
2019-01-31T14:50:35.659Z,2.50
2019-01-31T14:53:03.769Z,2.60
2019-01-31T14:55:31.824Z,2.50
2019-01-31T14:58:03.472Z,2.43
2019-01-31T15:00:31.980Z,2.37
2019-01-31T15:03:02.985Z,2.40
2019-01-31T15:05:31.271Z,2.37
2019-01-31T15:07:59.279Z,2.37
2019-01-31T15:10:30.206Z,2.43
2019-01-31T15:13:00.523Z,2.60
2019-01-31T15:15:28.621Z,3.00
2019-01-31T15:18:05.760Z,2.80
2019-01-31T15:20:38.093Z,2.80
2019-01-31T15:23:05.539Z,3.13
2019-01-31T15:25:33.538Z,2.70
2019-01-31T15:28:01.465Z,2.70
2019-01-31T15:30:30.795Z,2.63
2019-01-31T15:32:59.026Z,2.90
2019-01-31T15:35:27.000Z,2.80
2019-01-31T15:37:55.095Z,3.00
2019-01-31T15:40:25.256Z,2.93
2019-01-31T15:42:53.283Z,2.90
2019-01-31T15:45:21.427Z,3.13
2019-01-31T15:47:49.367Z,3.30
2019-01-31T15:50:17.552Z,3.07
2019-01-31T15:52:45.688Z,3.10
2019-01-31T15:55:14.707Z,2.80
2019-01-31T15:57:42.876Z,2.47
2019-01-31T16:00:17.710Z,3.13
2019-01-31T16:02:45.751Z,2.70
2019-01-31T16:05:19.034Z,2.77
2019-01-31T16:07:43.717Z,2.60
2019-01-31T16:10:12.167Z,2.63
2019-01-31T16:12:40.130Z,2.57
2019-01-31T16:15:09.152Z,2.20
2019-01-31T16:17:41.199Z,2.20
2019-01-31T16:20:10.031Z,2.40
2019-01-31T16:22:38.169Z,2.40
2019-01-31T16:25:06.579Z,2.37
2019-01-31T16:27:34.487Z,2.37
2019-01-31T16:30:02.390Z,2.73
2019-01-31T16:32:30.367Z,2.73
2019-01-31T16:34:58.428Z,3.00
2019-01-31T16:37:26.500Z,2.60
2019-01-31T16:39:54.616Z,2.40
2019-01-31T16:42:22.624Z,2.83
2019-01-31T16:44:50.544Z,2.95
2019-01-31T16:47:18.532Z,2.80
2019-01-31T16:49:46.990Z,2.70
2019-01-31T16:52:15.024Z,2.73
2019-01-31T16:54:43.225Z,2.83
2019-01-31T16:57:11.224Z,2.90
2019-01-31T16:59:39.124Z,2.80
2019-01-31T17:02:07.650Z,2.60
2019-01-31T17:04:35.639Z,2.73
2019-01-31T17:07:03.863Z,3.10
2019-01-31T17:09:32.027Z,2.67
2019-01-31T17:11:59.980Z,2.20
2019-01-31T17:14:28.507Z,2.40
2019-01-31T17:16:56.491Z,2.40
2019-01-31T17:19:27.094Z,2.20
2019-01-31T17:21:58.208Z,2.73
2019-01-31T17:24:26.277Z,2.70
2019-01-31T17:26:54.227Z,2.30
2019-01-31T17:29:22.242Z,2.47
2019-01-31T17:31:50.583Z,2.50
2019-01-31T17:34:18.823Z,2.10
2019-01-31T17:36:47.016Z,2.60
2019-01-31T17:39:15.130Z,2.37
2019-01-31T17:41:43.136Z,2.50
2019-01-31T17:44:11.499Z,2.17
2019-01-31T17:46:39.463Z,2.33
2019-01-31T17:49:09.708Z,2.80
2019-01-31T17:51:37.933Z,2.70
2019-01-31T17:54:06.096Z,3.03
2019-01-31T17:56:34.027Z,2.73
2019-01-31T17:59:02.000Z,2.93
2019-01-31T18:01:30.078Z,2.80
2019-01-31T18:03:58.362Z,2.70
2019-01-31T18:06:26.483Z,2.40
2019-01-31T18:08:54.672Z,2.23
2019-01-31T18:11:22.582Z,2.90
2019-01-31T18:13:52.761Z,2.70
2019-01-31T18:16:25.242Z,2.67
2019-01-31T18:18:50.555Z,2.27
2019-01-31T18:21:18.715Z,2.30
2019-01-31T18:23:49.756Z,2.83
2019-01-31T18:26:17.797Z,2.30
2019-01-31T18:28:45.819Z,2.57
2019-01-31T18:31:13.819Z,3.13
2019-01-31T18:33:41.849Z,2.53
2019-01-31T18:36:09.856Z,2.77
2019-01-31T18:38:37.891Z,2.60
2019-01-31T18:41:05.969Z,2.70
2019-01-31T18:43:34.111Z,2.60
2019-01-31T18:46:02.150Z,2.50
2019-01-31T18:48:32.269Z,2.73
2019-01-31T18:51:00.399Z,3.20
2019-01-31T18:53:28.456Z,2.80
2019-01-31T18:55:56.460Z,3.10
2019-01-31T18:58:24.531Z,2.90
2019-01-31T19:00:52.625Z,2.70
2019-01-31T19:03:20.686Z,2.70
2019-01-31T19:05:48.863Z,2.73
2019-01-31T19:08:16.874Z,2.47
2019-01-31T19:10:44.902Z,2.27
2019-01-31T19:13:12.931Z,2.40
2019-01-31T19:15:40.993Z,2.03
2019-01-31T19:18:09.159Z,2.80
2019-01-31T19:20:37.507Z,2.40
2019-01-31T19:23:06.297Z,2.40
2019-01-31T19:25:34.289Z,2.17
2019-01-31T19:28:02.315Z,2.03
2019-01-31T19:30:31.501Z,1.93
2019-01-31T19:32:59.592Z,2.10
2019-01-31T19:35:27.654Z,2.00
2019-01-31T19:38:02.060Z,2.20
2019-01-31T19:40:28.317Z,1.93
2019-01-31T19:42:56.343Z,1.90
2019-01-31T19:45:29.088Z,1.63
2019-01-31T19:47:57.015Z,2.00
2019-01-31T19:50:24.923Z,1.90
2019-01-31T19:52:52.972Z,1.83
2019-01-31T19:55:21.105Z,1.63
2019-01-31T19:57:49.195Z,2.67
2019-01-31T20:00:18.115Z,1.70
2019-01-31T20:02:46.133Z,1.90
2019-01-31T20:05:14.420Z,1.80
2019-01-31T20:07:42.608Z,1.80
2019-01-31T20:10:11.065Z,1.83
2019-01-31T20:12:39.071Z,1.63
2019-01-31T20:15:07.584Z,1.80
2019-01-31T20:17:35.654Z,1.90
2019-01-31T20:20:04.356Z,1.70
2019-01-31T20:22:32.308Z,1.70
2019-01-31T20:25:00.252Z,1.90
2019-01-31T20:27:28.312Z,1.90
2019-01-31T20:29:56.471Z,1.97
2019-01-31T20:32:25.116Z,2.03
2019-01-31T20:34:53.160Z,1.90
2019-01-31T20:37:21.113Z,1.90
2019-01-31T20:39:49.351Z,1.80
2019-01-31T20:42:17.347Z,1.80
2019-01-31T20:44:45.254Z,1.77
2019-01-31T20:47:15.742Z,1.87
2019-01-31T20:49:42.946Z,1.90
2019-01-31T20:52:10.943Z,1.70
2019-01-31T20:54:38.944Z,1.83
2019-01-31T20:57:06.940Z,1.70
2019-01-31T20:59:35.091Z,1.80
2019-01-31T21:02:03.082Z,1.63
2019-01-31T21:04:30.988Z,2.10
2019-01-31T21:06:58.970Z,1.80
2019-01-31T21:09:28.765Z,1.90
2019-01-31T21:11:56.560Z,1.80
2019-01-31T21:14:24.480Z,1.90
2019-01-31T21:16:52.460Z,1.90
2019-01-31T21:19:20.374Z,1.77
2019-01-31T21:21:48.445Z,2.10
2019-01-31T21:24:16.379Z,2.00
2019-01-31T21:26:44.383Z,1.80
2019-01-31T21:29:12.305Z,1.77
2019-01-31T21:31:42.433Z,1.63
2019-01-31T21:34:10.469Z,1.60
2019-01-31T21:36:38.450Z,1.73
2019-01-31T21:39:07.975Z,1.47
2019-01-31T21:41:40.592Z,1.67
2019-01-31T21:44:08.559Z,1.83
2019-01-31T21:46:36.593Z,1.80
2019-01-31T21:49:04.784Z,1.80
2019-01-31T21:51:32.777Z,1.83
2019-01-31T21:54:00.745Z,1.80
2019-01-31T21:56:28.723Z,1.87
2019-01-31T21:58:58.926Z,1.70
2019-01-31T22:01:26.893Z,1.83
2019-01-31T22:03:56.083Z,2.00
2019-01-31T22:06:24.082Z,1.87
2019-01-31T22:08:54.159Z,1.80
2019-01-31T22:11:22.075Z,2.00
2019-01-31T22:13:54.358Z,1.80
2019-01-31T22:16:25.084Z,1.93
2019-01-31T22:18:53.007Z,2.10
2019-01-31T22:21:22.153Z,2.03
2019-01-31T22:23:50.134Z,1.83
2019-01-31T22:26:18.254Z,1.73
2019-01-31T22:28:46.174Z,1.90
2019-01-31T22:31:14.284Z,1.70
2019-01-31T22:33:42.275Z,1.80
2019-01-31T22:36:10.196Z,2.10
2019-01-31T22:38:38.112Z,1.93
2019-01-31T22:41:06.017Z,1.90
2019-01-31T22:43:34.120Z,1.70
2019-01-31T22:46:02.048Z,2.00
2019-01-31T22:48:30.062Z,1.57
2019-01-31T22:50:57.963Z,2.00
2019-01-31T22:53:25.961Z,2.00
2019-01-31T22:55:54.036Z,2.00
2019-01-31T22:58:22.064Z,1.87
2019-01-31T23:01:12.970Z,1.93
2019-01-31T23:03:40.907Z,2.00
2019-01-31T23:06:10.303Z,1.90
2019-01-31T23:08:38.279Z,2.00
2019-01-31T23:11:08.485Z,1.80
2019-01-31T23:13:36.460Z,1.90
2019-01-31T23:16:05.183Z,2.20
2019-01-31T23:18:33.202Z,2.10
2019-01-31T23:21:01.114Z,1.90
2019-01-31T23:23:29.104Z,2.10
2019-01-31T23:25:57.038Z,2.10
2019-01-31T23:28:24.915Z,1.67
2019-01-31T23:30:52.801Z,2.10
2019-01-31T23:33:20.827Z,1.93
2019-01-31T23:35:48.790Z,1.77
2019-01-31T23:38:16.751Z,1.80
2019-01-31T23:40:44.655Z,1.87
2019-01-31T23:43:12.724Z,1.97
2019-01-31T23:45:40.700Z,2.10
2019-01-31T23:48:08.627Z,1.80
2019-01-31T23:50:36.618Z,2.07
2019-01-31T23:53:04.843Z,1.90
2019-01-31T23:55:32.817Z,2.10
2019-01-31T23:58:00.939Z,1.73
